Time;durP1;ratioP1;P1;durP2;ratioP2;P2;SDS_P1;SDS_P2;PMS_P1;PMS_P2;Temp;Humidity;BMP_temperature;BMP_pressure;BME280_temperature;BME280_humidity;BME280_pressure;Samples;Min_cycle;Max_cycle;Signal;HPM_P1;HPM_P2
2021/11/27 00:00:38;;;;;;;4.15;0.77;;;6.80;80.90;;;;;;5018438;28;20113;-67
2021/11/27 00:03:04;;;;;;;2.83;0.65;;;6.80;80.60;;;;;;5008907;28;20030;-67
2021/11/27 00:05:33;;;;;;;2.63;0.63;;;6.80;80.70;;;;;;5013543;28;20079;-66
2021/11/27 00:07:59;;;;;;;3.22;0.70;;;6.80;80.40;;;;;;5011908;28;20046;-66
2021/11/27 00:10:27;;;;;;;3.42;0.63;;;6.80;80.70;;;;;;5008122;28;20045;-66
2021/11/27 00:12:53;;;;;;;3.28;0.65;;;6.80;80.50;;;;;;4996171;28;20037;-66
2021/11/27 00:15:21;;;;;;;2.55;0.75;;;6.80;80.70;;;;;;4992323;28;20399;-67
2021/11/27 00:17:47;;;;;;;2.78;0.60;;;6.70;81.20;;;;;;4989899;28;20628;-67
2021/11/27 00:20:17;;;;;;;2.00;0.63;;;6.80;81.00;;;;;;5006909;28;20021;-67
2021/11/27 00:22:43;;;;;;;4.18;0.68;;;6.70;80.60;;;;;;5008410;28;20105;-67
2021/11/27 00:25:10;;;;;;;2.50;0.60;;;6.60;80.70;;;;;;5007709;28;20105;-67
2021/11/27 00:27:37;;;;;;;3.13;0.98;;;6.60;81.20;;;;;;5009433;28;20030;-66
2021/11/27 00:30:05;;;;;;;4.03;0.57;;;6.60;81.10;;;;;;5010192;28;20026;-66
2021/11/27 00:32:30;;;;;;;5.00;0.70;;;6.60;81.60;;;;;;5010536;28;20037;-66
2021/11/27 00:34:56;;;;;;;3.20;0.80;;;6.50;81.30;;;;;;4992586;28;20030;-66
2021/11/27 00:37:22;;;;;;;2.55;0.70;;;6.50;81.30;;;;;;5008450;28;20105;-66
2021/11/27 00:39:47;;;;;;;4.18;0.95;;;6.50;81.20;;;;;;5007906;28;20049;-66
2021/11/27 00:42:13;;;;;;;3.15;0.80;;;6.40;81.20;;;;;;5010434;28;20391;-66
2021/11/27 00:44:38;;;;;;;3.00;0.70;;;6.40;81.30;;;;;;4991947;28;20031;-67
2021/11/27 00:47:04;;;;;;;2.75;0.60;;;6.40;81.30;;;;;;5007972;28;20383;-68
2021/11/27 00:49:32;;;;;;;2.78;0.70;;;6.40;81.70;;;;;;5007991;28;20045;-67
2021/11/27 00:51:58;;;;;;;2.97;0.77;;;6.50;81.80;;;;;;5008101;28;20026;-67
2021/11/27 00:54:24;;;;;;;4.53;0.90;;;6.50;81.30;;;;;;5008831;28;20029;-67
2021/11/27 00:56:51;;;;;;;5.28;0.77;;;6.50;81.30;;;;;;5011287;28;20415;-67
2021/11/27 00:59:17;;;;;;;4.28;0.70;;;6.50;80.90;;;;;;5007990;28;20018;-66
2021/11/27 01:01:44;;;;;;;2.15;0.60;;;6.50;81.10;;;;;;5013701;28;20026;-66
2021/11/27 01:04:10;;;;;;;3.55;0.68;;;6.50;80.70;;;;;;5007999;28;20030;-66
2021/11/27 01:06:36;;;;;;;3.00;0.60;;;6.50;80.80;;;;;;5007760;28;20043;-66
2021/11/27 01:09:09;;;;;;;1.90;0.55;;;6.50;80.60;;;;;;5011065;28;20042;-67
2021/11/27 01:11:40;;;;;;;1.70;0.38;;;6.60;80.50;;;;;;5010717;28;20033;-67
2021/11/27 01:14:12;;;;;;;1.92;0.50;;;6.60;80.40;;;;;;5006399;28;20057;-66
2021/11/27 01:16:40;;;;;;;1.92;0.43;;;6.50;80.00;;;;;;5006436;28;20040;-67
2021/11/27 01:19:07;;;;;;;1.92;0.40;;;6.30;79.50;;;;;;5004426;28;20118;-66
2021/11/27 01:21:35;;;;;;;3.33;0.50;;;6.20;79.80;;;;;;5002052;28;20049;-67
2021/11/27 01:24:05;;;;;;;2.75;0.47;;;6.10;80.50;;;;;;5014441;28;20041;-67
2021/11/27 01:26:32;;;;;;;0.88;0.35;;;6.10;80.50;;;;;;5012543;28;20057;-66
2021/11/27 01:28:58;;;;;;;1.00;0.30;;;6.00;81.00;;;;;;5011369;28;20038;-67
2021/11/27 01:31:23;;;;;;;1.48;0.30;;;6.00;81.00;;;;;;5011081;28;20048;-67
2021/11/27 01:33:49;;;;;;;2.70;0.50;;;6.00;80.90;;;;;;5011698;28;20093;-66
2021/11/27 01:36:15;;;;;;;1.13;0.30;;;6.00;80.90;;;;;;5013254;28;20030;-67
2021/11/27 01:38:41;;;;;;;4.10;0.47;;;6.00;81.20;;;;;;5013506;28;20032;-67
2021/11/27 01:41:07;;;;;;;2.60;0.30;;;5.90;81.00;;;;;;5012821;28;20057;-67
2021/11/27 01:43:35;;;;;;;1.95;0.45;;;5.90;81.30;;;;;;5010971;28;20024;-67
2021/11/27 01:46:02;;;;;;;1.48;0.35;;;6.00;81.50;;;;;;4993756;28;20026;-67
2021/11/27 01:48:28;;;;;;;2.42;0.60;;;5.90;81.30;;;;;;5011381;28;20034;-66
2021/11/27 01:50:59;;;;;;;2.20;0.40;;;6.00;81.40;;;;;;5014100;28;20048;-66
2021/11/27 01:53:27;;;;;;;1.77;0.40;;;5.90;81.20;;;;;;4993659;28;20026;-66
2021/11/27 01:55:56;;;;;;;1.33;0.35;;;5.90;81.10;;;;;;5010742;28;20041;-66
2021/11/27 01:58:23;;;;;;;2.08;0.50;;;5.90;81.50;;;;;;5010584;28;20109;-67
2021/11/27 02:00:52;;;;;;;4.78;0.60;;;5.90;81.10;;;;;;5012815;28;20073;-67
2021/11/27 02:03:18;;;;;;;0.75;0.40;;;5.80;80.90;;;;;;4994090;28;20022;-67
2021/11/27 02:05:44;;;;;;;1.85;0.52;;;5.80;80.80;;;;;;5000355;28;20101;-67
2021/11/27 02:08:09;;;;;;;1.35;0.40;;;5.70;81.30;;;;;;4992594;28;20049;-67
2021/11/27 02:10:35;;;;;;;2.63;0.77;;;5.70;82.00;;;;;;5010631;28;20040;-66
2021/11/27 02:13:01;;;;;;;3.25;0.43;;;5.70;81.10;;;;;;5010661;28;20041;-66
2021/11/27 02:15:27;;;;;;;1.42;0.40;;;5.60;81.30;;;;;;5011360;28;20038;-66
2021/11/27 02:17:53;;;;;;;0.95;0.30;;;5.70;81.50;;;;;;5013306;28;20026;-66
2021/11/27 02:20:19;;;;;;;1.77;0.30;;;5.60;81.40;;;;;;5011045;28;20064;-67
2021/11/27 02:22:45;;;;;;;2.22;0.40;;;5.60;81.70;;;;;;5010253;28;20030;-66
2021/11/27 02:25:17;;;;;;;2.88;0.40;;;5.70;82.00;;;;;;5010067;28;20034;-66
2021/11/27 02:27:48;;;;;;;1.70;0.32;;;5.70;81.80;;;;;;4991964;28;20022;-66
2021/11/27 02:30:17;;;;;;;1.70;0.43;;;5.80;82.10;;;;;;5002054;28;20030;-66
2021/11/27 02:32:43;;;;;;;2.58;0.40;;;5.90;82.10;;;;;;4985388;28;20030;-66
2021/11/27 02:35:09;;;;;;;2.35;0.70;;;5.90;81.90;;;;;;5007746;28;20113;-66
2021/11/27 02:37:36;;;;;;;1.17;0.57;;;5.90;81.30;;;;;;5010975;28;20077;-66
2021/11/27 02:40:03;;;;;;;3.03;0.40;;;5.80;81.30;;;;;;5010051;28;20041;-67
2021/11/27 02:42:28;;;;;;;2.35;0.60;;;5.80;81.70;;;;;;4994824;28;20022;-67
2021/11/27 02:44:54;;;;;;;1.85;0.50;;;5.80;81.60;;;;;;5013292;28;20022;-66
2021/11/27 02:47:19;;;;;;;2.30;0.60;;;5.90;81.60;;;;;;5009501;28;20138;-66
2021/11/27 02:49:45;;;;;;;3.28;0.52;;;5.90;81.90;;;;;;5009527;28;20504;-66
2021/11/27 02:52:11;;;;;;;1.45;0.52;;;5.80;81.80;;;;;;5009734;28;20021;-66
2021/11/27 02:54:37;;;;;;;1.75;0.60;;;5.80;81.90;;;;;;5009322;28;20034;-66
2021/11/27 02:57:03;;;;;;;1.98;0.50;;;5.80;82.20;;;;;;5009607;28;20442;-66
2021/11/27 02:59:30;;;;;;;2.97;0.60;;;5.80;82.10;;;;;;5010565;28;20037;-66
2021/11/27 03:01:58;;;;;;;3.33;0.50;;;5.80;82.20;;;;;;5013473;28;20018;-66
2021/11/27 03:04:26;;;;;;;3.30;0.60;;;5.80;82.50;;;;;;5004848;28;20042;-66
2021/11/27 03:06:53;;;;;;;5.32;0.70;;;5.80;82.20;;;;;;4998522;28;20038;-66
2021/11/27 03:09:20;;;;;;;1.92;0.65;;;5.80;82.10;;;;;;5011468;28;20041;-66
2021/11/27 03:11:50;;;;;;;3.05;0.73;;;5.80;82.20;;;;;;5011539;28;20069;-66
2021/11/27 03:14:17;;;;;;;3.17;0.60;;;5.70;81.90;;;;;;5009271;28;20022;-66
2021/11/27 03:16:43;;;;;;;1.98;0.55;;;5.60;81.80;;;;;;5009087;28;20015;-66
2021/11/27 03:19:10;;;;;;;5.57;0.80;;;5.60;82.20;;;;;;5008801;28;20272;-66
2021/11/27 03:21:36;;;;;;;2.38;0.60;;;5.60;82.10;;;;;;5009336;28;20031;-66
2021/11/27 03:24:03;;;;;;;5.88;0.95;;;5.60;82.40;;;;;;5012537;28;20030;-66
2021/11/27 03:26:29;;;;;;;3.33;0.63;;;5.60;82.40;;;;;;5009758;28;20097;-67
2021/11/27 03:28:55;;;;;;;4.13;0.73;;;5.70;82.40;;;;;;5009042;28;20547;-66
2021/11/27 03:31:21;;;;;;;3.20;0.68;;;5.60;82.10;;;;;;5007627;28;20561;-66
2021/11/27 03:33:46;;;;;;;2.95;0.70;;;5.70;82.20;;;;;;5008806;28;20062;-65
2021/11/27 03:36:15;;;;;;;5.28;0.57;;;5.70;82.10;;;;;;5011014;28;20113;-65
2021/11/27 03:38:41;;;;;;;1.70;0.43;;;5.70;82.50;;;;;;4990819;28;20117;-66
2021/11/27 03:41:07;;;;;;;4.57;0.60;;;5.80;82.40;;;;;;5006343;28;20560;-66
2021/11/27 03:43:33;;;;;;;2.03;0.40;;;5.80;82.30;;;;;;5008251;28;20037;-66
2021/11/27 03:46:00;;;;;;;2.58;0.60;;;5.80;81.90;;;;;;4991559;28;20022;-66
2021/11/27 03:48:30;;;;;;;5.60;0.70;;;5.80;82.00;;;;;;5009448;28;20034;-66
2021/11/27 03:50:57;;;;;;;4.57;0.70;;;5.70;82.00;;;;;;4991297;28;20068;-66
2021/11/27 03:53:30;;;;;;;2.03;0.77;;;5.80;82.00;;;;;;5008629;28;20026;-66
2021/11/27 03:55:56;;;;;;;5.70;0.70;;;5.70;82.20;;;;;;5008552;28;20036;-66
2021/11/27 03:58:22;;;;;;;3.22;0.73;;;5.80;82.50;;;;;;5008541;28;20092;-66
2021/11/27 04:00:50;;;;;;;4.68;0.65;;;5.80;82.40;;;;;;5009987;28;20026;-66
2021/11/27 04:03:17;;;;;;;2.08;0.70;;;5.80;82.40;;;;;;5012090;28;20446;-65
2021/11/27 04:05:57;;;;;;;3.42;0.50;;;5.80;82.30;;;;;;5010351;28;20021;-66
2021/11/27 04:08:24;;;;;;;1.67;0.55;;;5.80;82.70;;;;;;5009481;28;20058;-67
2021/11/27 04:10:50;;;;;;;2.30;0.60;;;5.90;83.50;;;;;;4991303;28;20026;-66
2021/11/27 04:13:17;;;;;;;4.20;0.98;;;5.80;82.40;;;;;;5008272;28;20022;-66
2021/11/27 04:15:43;;;;;;;3.83;0.60;;;5.90;82.20;;;;;;4990960;28;20018;-65
2021/11/27 04:18:08;;;;;;;3.33;0.60;;;5.90;82.40;;;;;;5010344;28;20018;-65
2021/11/27 04:20:34;;;;;;;3.72;0.60;;;5.80;82.00;;;;;;5009703;28;20034;-66
2021/11/27 04:23:00;;;;;;;2.05;0.50;;;5.80;82.30;;;;;;5008001;28;20386;-66
2021/11/27 04:25:27;;;;;;;5.07;0.55;;;5.70;82.60;;;;;;5008704;28;20076;-66
2021/11/27 04:27:52;;;;;;;3.88;0.80;;;5.70;82.90;;;;;;5008186;28;20037;-66
2021/11/27 04:30:22;;;;;;;3.28;0.90;;;5.80;82.80;;;;;;4999528;28;20022;-66
2021/11/27 04:32:48;;;;;;;3.42;0.70;;;5.80;82.50;;;;;;4997385;28;20413;-66
2021/11/27 04:35:15;;;;;;;3.13;0.70;;;5.80;82.60;;;;;;5006668;28;20029;-66
2021/11/27 04:37:41;;;;;;;4.75;0.60;;;5.80;83.20;;;;;;5009554;28;20026;-66
2021/11/27 04:40:07;;;;;;;1.95;0.50;;;5.90;84.30;;;;;;5009853;28;20029;-66
2021/11/27 04:42:34;;;;;;;3.78;0.75;;;5.90;83.20;;;;;;5007934;28;20022;-66
2021/11/27 04:45:01;;;;;;;5.10;0.50;;;5.90;83.40;;;;;;5011151;28;20026;-66
2021/11/27 04:47:26;;;;;;;3.13;0.50;;;6.00;83.40;;;;;;5010019;28;20036;-66
2021/11/27 04:49:52;;;;;;;3.83;0.60;;;6.00;83.20;;;;;;5004297;28;20033;-66
2021/11/27 04:52:18;;;;;;;5.00;0.80;;;6.00;83.30;;;;;;5011600;28;20399;-66
2021/11/27 04:54:44;;;;;;;4.88;0.88;;;6.00;83.10;;;;;;5009151;28;20026;-66
2021/11/27 04:57:09;;;;;;;4.25;0.63;;;6.10;83.20;;;;;;5015832;28;20034;-66
2021/11/27 04:59:35;;;;;;;3.15;0.60;;;6.10;83.20;;;;;;4998001;28;20113;-66
2021/11/27 05:02:01;;;;;;;2.33;0.68;;;6.10;83.10;;;;;;5015748;28;20071;-66
2021/11/27 05:04:28;;;;;;;3.08;0.60;;;6.20;83.10;;;;;;5011821;28;20428;-66
2021/11/27 05:06:54;;;;;;;3.60;0.70;;;6.20;82.90;;;;;;5010402;28;20203;-66
2021/11/27 05:09:20;;;;;;;2.78;0.60;;;6.20;82.60;;;;;;4997859;28;20045;-66
2021/11/27 05:11:46;;;;;;;1.50;0.50;;;6.10;83.00;;;;;;4997590;28;20026;-68
2021/11/27 05:14:12;;;;;;;5.25;0.63;;;6.10;83.00;;;;;;5002186;28;20034;-67
2021/11/27 05:16:38;;;;;;;2.75;0.50;;;6.10;83.20;;;;;;5021510;28;20026;-67
2021/11/27 05:19:04;;;;;;;3.78;0.60;;;6.10;83.70;;;;;;5005520;28;20394;-67
2021/11/27 05:21:29;;;;;;;2.00;0.43;;;6.10;83.80;;;;;;5016881;28;20022;-67
2021/11/27 05:23:55;;;;;;;1.45;0.45;;;6.10;83.80;;;;;;5010172;28;20030;-67
2021/11/27 05:26:21;;;;;;;3.30;0.50;;;6.10;83.90;;;;;;5021160;28;20033;-66
2021/11/27 05:28:47;;;;;;;3.90;0.80;;;6.10;84.20;;;;;;5021342;28;20103;-67
2021/11/27 05:31:16;;;;;;;2.13;0.32;;;6.10;84.40;;;;;;5022583;28;20552;-67
2021/11/27 05:36:11;;;;;;;1.75;0.40;;;6.10;84.30;;;;;;5024354;28;20033;-67
2021/11/27 05:38:37;;;;;;;2.33;0.57;;;6.10;84.50;;;;;;5017487;28;20046;-67
2021/11/27 05:41:03;;;;;;;3.15;0.50;;;6.20;84.50;;;;;;5012133;28;20030;-66
2021/11/27 05:43:30;;;;;;;1.60;0.40;;;6.20;84.50;;;;;;5012872;28;20030;-66
2021/11/27 05:45:56;;;;;;;2.25;0.50;;;6.20;84.40;;;;;;5012270;28;20022;-66
2021/11/27 05:48:21;;;;;;;3.97;0.47;;;6.20;84.50;;;;;;5012598;28;23259;-67
2021/11/27 05:50:47;;;;;;;0.75;0.20;;;6.20;84.70;;;;;;5013323;28;20029;-66
2021/11/27 05:53:18;;;;;;;1.83;0.30;;;6.20;84.10;;;;;;5010654;28;20034;-67
2021/11/27 05:55:48;;;;;;;1.67;0.40;;;6.20;84.90;;;;;;5011079;28;20013;-66
2021/11/27 05:58:15;;;;;;;3.42;0.40;;;6.10;84.60;;;;;;5009404;28;20026;-66
2021/11/27 06:00:41;;;;;;;1.55;0.40;;;6.10;85.10;;;;;;5004257;28;20022;-67
2021/11/27 06:03:07;;;;;;;1.38;0.30;;;6.10;84.80;;;;;;5016399;28;20014;-67
2021/11/27 06:05:33;;;;;;;2.13;0.47;;;6.00;84.80;;;;;;5011145;28;20084;-66
2021/11/27 06:07:58;;;;;;;1.38;0.30;;;6.10;85.70;;;;;;5010660;28;20049;-66
2021/11/27 06:10:24;;;;;;;2.08;0.40;;;6.00;85.90;;;;;;5010551;28;20041;-66
2021/11/27 06:12:50;;;;;;;2.15;0.40;;;6.00;85.40;;;;;;5010435;28;20034;-66
2021/11/27 06:15:16;;;;;;;2.78;0.60;;;6.00;85.80;;;;;;5012542;28;20101;-66
2021/11/27 06:17:41;;;;;;;1.02;0.40;;;6.00;86.30;;;;;;5012095;28;20018;-66
2021/11/27 06:20:08;;;;;;;1.77;0.50;;;6.00;85.80;;;;;;5010647;28;20068;-66
2021/11/27 06:22:34;;;;;;;2.97;0.43;;;6.10;85.90;;;;;;5010692;28;20033;-66
2021/11/27 06:24:59;;;;;;;3.33;0.47;;;6.10;85.70;;;;;;5010579;28;20450;-67
2021/11/27 06:27:25;;;;;;;3.53;0.50;;;6.10;85.80;;;;;;4993860;28;20483;-66
2021/11/27 06:29:51;;;;;;;2.85;0.40;;;6.20;85.40;;;;;;5012844;28;20038;-66
2021/11/27 06:32:22;;;;;;;1.00;0.30;;;6.10;85.60;;;;;;5012486;28;20479;-67
2021/11/27 06:34:48;;;;;;;2.65;0.50;;;6.20;85.80;;;;;;5017823;28;20022;-67
2021/11/27 06:37:14;;;;;;;3.75;0.50;;;6.30;85.80;;;;;;5014389;28;20018;-66
2021/11/27 06:39:40;;;;;;;1.60;0.43;;;6.20;85.80;;;;;;5010051;28;20152;-66
2021/11/27 06:42:06;;;;;;;2.33;0.40;;;6.30;85.50;;;;;;5013876;28;20045;-68
2021/11/27 06:44:32;;;;;;;1.67;0.38;;;6.30;85.50;;;;;;5014261;28;20014;-66
2021/11/27 06:46:58;;;;;;;3.75;0.50;;;6.30;85.60;;;;;;4998361;28;20383;-67
2021/11/27 06:49:24;;;;;;;3.38;0.60;;;6.40;85.30;;;;;;5003572;28;20042;-66
2021/11/27 06:51:50;;;;;;;3.20;0.60;;;6.30;85.50;;;;;;5014053;28;20021;-68
2021/11/27 06:54:16;;;;;;;5.32;0.60;;;6.40;85.30;;;;;;4995207;28;20061;-68
2021/11/27 06:56:41;;;;;;;4.18;0.60;;;6.40;85.40;;;;;;5008982;28;20037;-67
2021/11/27 06:59:07;;;;;;;4.95;0.60;;;6.50;85.90;;;;;;5003374;28;20038;-66
2021/11/27 07:01:33;;;;;;;3.30;0.57;;;6.50;86.00;;;;;;4999126;28;20029;-67
2021/11/27 07:03:59;;;;;;;4.78;0.75;;;6.60;85.80;;;;;;5010029;28;20091;-67
2021/11/27 07:06:25;;;;;;;3.05;0.50;;;6.60;85.70;;;;;;5010584;28;20518;-66
2021/11/27 07:08:50;;;;;;;2.33;0.40;;;6.60;85.90;;;;;;5012454;28;20081;-66
2021/11/27 07:11:16;;;;;;;4.20;0.55;;;6.60;85.40;;;;;;5009177;28;20458;-67
2021/11/27 07:13:42;;;;;;;4.30;0.65;;;6.70;85.70;;;;;;5009654;28;20037;-66
2021/11/27 07:16:07;;;;;;;6.70;0.70;;;6.70;85.80;;;;;;5009529;28;20546;-67
2021/11/27 07:18:33;;;;;;;2.95;0.60;;;6.70;85.80;;;;;;5008658;28;20049;-67
2021/11/27 07:20:59;;;;;;;5.70;0.75;;;6.70;85.40;;;;;;5013190;28;20033;-66
2021/11/27 07:23:24;;;;;;;3.28;0.65;;;6.70;85.30;;;;;;5009395;28;20080;-67
2021/11/27 07:25:51;;;;;;;3.40;0.70;;;6.70;85.40;;;;;;5009097;28;20095;-67
2021/11/27 07:28:17;;;;;;;5.03;0.80;;;6.70;85.30;;;;;;5009173;28;20041;-67
2021/11/27 07:30:43;;;;;;;4.50;1.00;;;6.60;85.30;;;;;;4992382;28;20034;-66
2021/11/27 07:33:09;;;;;;;3.75;0.52;;;6.70;85.90;;;;;;5011280;28;20064;-65
2021/11/27 07:35:35;;;;;;;3.55;0.90;;;6.70;85.40;;;;;;5006054;28;20058;-65
2021/11/27 07:38:00;;;;;;;6.18;1.08;;;6.70;85.30;;;;;;5009476;28;20028;-65
2021/11/27 07:40:26;;;;;;;3.35;0.65;;;6.70;85.60;;;;;;5009345;28;20037;-66
2021/11/27 07:42:52;;;;;;;1.85;0.50;;;6.70;85.40;;;;;;5010279;28;20061;-67
2021/11/27 07:45:20;;;;;;;5.50;0.70;;;6.70;85.40;;;;;;5011604;28;20091;-67
2021/11/27 07:47:45;;;;;;;3.30;0.80;;;6.70;85.70;;;;;;5010995;28;20394;-67
2021/11/27 07:50:11;;;;;;;3.80;0.90;;;6.70;85.80;;;;;;5008965;28;20584;-66
2021/11/27 07:52:37;;;;;;;2.97;0.52;;;6.70;85.90;;;;;;5010935;28;20089;-67
2021/11/27 07:55:03;;;;;;;5.63;0.95;;;6.80;85.70;;;;;;5008385;28;20032;-66
2021/11/27 07:57:29;;;;;;;5.05;0.93;;;6.80;85.40;;;;;;5009307;28;20030;-65
2021/11/27 07:59:54;;;;;;;3.15;0.70;;;6.80;85.40;;;;;;4994322;28;20080;-66
2021/11/27 08:02:20;;;;;;;4.15;0.68;;;6.70;85.10;;;;;;5013078;28;20037;-65
2021/11/27 08:04:46;;;;;;;3.05;0.73;;;6.80;85.40;;;;;;5008611;28;20026;-65
2021/11/27 08:07:11;;;;;;;4.45;0.70;;;6.80;85.40;;;;;;5010290;28;20046;-66
2021/11/27 08:09:37;;;;;;;2.45;0.47;;;6.80;85.40;;;;;;5008511;28;20030;-66
2021/11/27 08:12:03;;;;;;;4.15;0.75;;;6.80;85.40;;;;;;5012150;28;20045;-66
2021/11/27 08:14:32;;;;;;;5.00;0.93;;;6.90;85.50;;;;;;5009174;28;20113;-65
2021/11/27 08:17:01;;;;;;;2.75;0.63;;;6.90;85.50;;;;;;4991424;28;20026;-67
2021/11/27 08:19:28;;;;;;;4.18;0.60;;;6.90;85.30;;;;;;5008648;28;20060;-66
2021/11/27 08:21:54;;;;;;;4.22;0.63;;;6.90;85.10;;;;;;5008761;28;20018;-66
2021/11/27 08:24:20;;;;;;;3.35;0.60;;;6.90;84.90;;;;;;5009749;28;20100;-65
2021/11/27 08:26:46;;;;;;;2.67;0.60;;;6.80;84.80;;;;;;5010674;28;20022;-65
2021/11/27 08:29:12;;;;;;;5.70;0.70;;;6.80;85.00;;;;;;5007983;28;20041;-65
2021/11/27 08:31:38;;;;;;;5.20;0.73;;;6.70;85.00;;;;;;5008593;28;20022;-68
2021/11/27 08:34:05;;;;;;;1.67;0.63;;;6.70;86.30;;;;;;5008462;28;20060;-66
2021/11/27 08:36:31;;;;;;;3.10;0.60;;;6.70;85.90;;;;;;4993273;28;20037;-66
2021/11/27 08:38:57;;;;;;;3.05;0.70;;;6.70;85.80;;;;;;4993915;28;20553;-66
2021/11/27 08:41:22;;;;;;;5.10;0.95;;;6.70;86.00;;;;;;5005490;28;20064;-66
2021/11/27 08:43:48;;;;;;;2.35;0.60;;;6.80;85.90;;;;;;5010734;28;20025;-66
2021/11/27 08:46:14;;;;;;;3.50;0.70;;;6.80;86.00;;;;;;5016074;28;20029;-67
2021/11/27 08:48:40;;;;;;;4.88;0.70;;;6.80;85.70;;;;;;5009449;28;20079;-66
2021/11/27 08:51:09;;;;;;;4.00;0.88;;;6.90;86.20;;;;;;5021348;28;20029;-66
2021/11/27 08:53:36;;;;;;;2.20;0.73;;;7.00;85.80;;;;;;5009842;28;20409;-66
2021/11/27 08:56:02;;;;;;;2.92;0.52;;;7.00;85.90;;;;;;5009373;28;20380;-62
2021/11/27 08:58:28;;;;;;;2.92;0.75;;;7.00;85.20;;;;;;5013475;28;20026;-62
2021/11/27 09:00:54;;;;;;;3.58;0.80;;;7.10;85.20;;;;;;5012584;28;20513;-68
2021/11/27 09:03:20;;;;;;;2.53;0.60;;;7.20;85.10;;;;;;5008761;28;20030;-66
2021/11/27 09:05:45;;;;;;;3.90;0.80;;;7.10;84.40;;;;;;5016031;28;20033;-66
2021/11/27 09:08:11;;;;;;;4.43;1.15;;;7.00;83.80;;;;;;5012526;28;20057;-69
2021/11/27 09:10:37;;;;;;;4.10;0.80;;;6.90;84.60;;;;;;4992911;28;20117;-68
2021/11/27 09:13:03;;;;;;;4.32;0.90;;;6.90;84.80;;;;;;4989605;28;20073;-68
2021/11/27 09:15:29;;;;;;;2.47;0.75;;;6.80;84.90;;;;;;5014057;28;20067;-68
2021/11/27 09:17:55;;;;;;;4.80;1.00;;;6.70;84.90;;;;;;5006782;28;20092;-68
2021/11/27 09:20:21;;;;;;;5.95;1.42;;;6.70;85.30;;;;;;5010743;28;20044;-69
2021/11/27 09:22:47;;;;;;;5.43;0.90;;;6.70;85.50;;;;;;5011196;28;20101;-68
2021/11/27 09:25:12;;;;;;;3.15;0.90;;;6.70;85.30;;;;;;5009432;28;20035;-69
2021/11/27 09:27:38;;;;;;;2.95;1.10;;;6.80;85.40;;;;;;5014160;28;20034;-68
2021/11/27 09:30:06;;;;;;;3.25;0.68;;;6.80;85.20;;;;;;5009387;28;20046;-68
2021/11/27 09:32:32;;;;;;;4.47;0.80;;;6.80;85.20;;;;;;5016042;28;20417;-68
2021/11/27 09:34:58;;;;;;;2.80;0.70;;;6.80;85.10;;;;;;5011925;28;20041;-69
2021/11/27 09:37:24;;;;;;;4.47;0.73;;;6.90;85.40;;;;;;5007895;28;20028;-62
2021/11/27 09:39:50;;;;;;;5.07;0.73;;;7.00;85.10;;;;;;5008279;28;20034;-61
2021/11/27 09:42:18;;;;;;;3.35;0.60;;;7.00;85.30;;;;;;5011602;28;20505;-60
2021/11/27 09:44:49;;;;;;;4.22;0.70;;;7.10;86.50;;;;;;5018013;28;20029;-64
2021/11/27 09:47:16;;;;;;;4.53;0.98;;;7.20;85.30;;;;;;5011603;28;20017;-63
2021/11/27 09:49:44;;;;;;;3.35;0.95;;;7.20;85.00;;;;;;5011503;28;20058;-63
2021/11/27 09:52:10;;;;;;;2.75;0.55;;;7.30;85.10;;;;;;5017405;28;20513;-64
2021/11/27 09:54:36;;;;;;;3.30;0.70;;;7.40;84.90;;;;;;5016577;28;20023;-66
2021/11/27 09:57:06;;;;;;;5.38;0.80;;;7.40;84.70;;;;;;5000360;28;20029;-66
2021/11/27 09:59:32;;;;;;;6.03;0.98;;;7.40;84.60;;;;;;4998148;28;20044;-67
2021/11/27 10:01:59;;;;;;;4.75;0.90;;;7.50;84.30;;;;;;5008719;28;20053;-66
2021/11/27 10:04:29;;;;;;;5.75;1.10;;;7.60;84.10;;;;;;5017814;28;20030;-66
2021/11/27 10:06:57;;;;;;;3.70;0.80;;;7.70;83.20;;;;;;5016096;28;20041;-66
2021/11/27 10:09:23;;;;;;;3.03;0.70;;;7.60;82.10;;;;;;5018019;28;20038;-66
2021/11/27 10:11:51;;;;;;;3.63;0.68;;;7.40;82.40;;;;;;5016941;28;20022;-67
2021/11/27 10:14:17;;;;;;;5.03;0.95;;;7.30;82.90;;;;;;5000748;28;20029;-68
2021/11/27 10:17:12;;;;;;;5.60;1.10;;;7.30;83.40;;;;;;5019112;28;20087;-68
2021/11/27 10:19:45;;;;;;;3.60;1.05;;;7.30;83.60;;;;;;4989604;28;20029;-67
2021/11/27 10:22:15;;;;;;;4.15;1.02;;;7.40;83.90;;;;;;5022639;28;20048;-67
2021/11/27 10:24:42;;;;;;;2.80;0.65;;;7.30;83.40;;;;;;5014567;28;20034;-63
2021/11/27 10:27:37;;;;;;;3.88;0.75;;;7.20;83.70;;;;;;5023060;28;20088;-65
2021/11/27 10:30:09;;;;;;;3.90;0.85;;;7.10;84.00;;;;;;4980081;28;20042;-66
2021/11/27 10:32:39;;;;;;;4.45;0.90;;;7.10;84.20;;;;;;5018442;28;20099;-66
2021/11/27 10:35:09;;;;;;;9.40;1.02;;;7.10;84.50;;;;;;5013472;28;20068;-67
2021/11/27 10:37:50;;;;;;;3.90;0.75;;;7.10;84.60;;;;;;5000739;28;20025;-67
2021/11/27 10:40:21;;;;;;;3.47;0.82;;;7.10;84.70;;;;;;5009792;28;20014;-67
2021/11/27 10:42:49;;;;;;;2.17;0.88;;;7.70;87.40;;;;;;5011838;28;20045;-67
2021/11/27 10:45:23;;;;;;;1.63;0.50;;;8.70;87.60;;;;;;5020782;28;20029;-66
2021/11/27 10:47:51;;;;;;;7.07;0.90;;;9.70;86.20;;;;;;5013336;28;20029;-66
2021/11/27 10:50:20;;;;;;;5.13;0.80;;;10.40;82.00;;;;;;5001928;28;20033;-66
2021/11/27 10:52:47;;;;;;;5.05;1.20;;;11.00;80.90;;;;;;5008201;28;20029;-65
2021/11/27 10:55:21;;;;;;;6.95;1.35;;;10.90;74.30;;;;;;5014915;28;20548;-65
2021/11/27 10:57:48;;;;;;;3.67;0.95;;;10.60;73.70;;;;;;5017163;28;20021;-65
2021/11/27 11:00:35;;;;;;;4.88;0.80;;;10.20;73.70;;;;;;5009930;28;20033;-69
2021/11/27 11:03:02;;;;;;;4.72;1.00;;;9.40;73.40;;;;;;5018928;28;20075;-69
2021/11/27 11:05:37;;;;;;;2.38;0.85;;;8.80;74.40;;;;;;5020184;28;20053;-63
2021/11/27 11:08:05;;;;;;;2.03;0.60;;;8.40;76.50;;;;;;5010306;28;20053;-67
2021/11/27 11:10:39;;;;;;;2.50;0.50;;;8.20;77.80;;;;;;5014335;28;20030;-66
2021/11/27 11:13:10;;;;;;;3.17;0.52;;;8.00;78.40;;;;;;5023452;28;20593;-67
2021/11/27 11:15:41;;;;;;;3.78;0.52;;;7.90;79.30;;;;;;5004949;28;20545;-68
2021/11/27 11:18:15;;;;;;;2.72;0.47;;;7.80;80.50;;;;;;5016681;28;20018;-67
2021/11/27 11:20:44;;;;;;;;;;;8.00;82.00;;;;;;4996929;28;20033;-67
2021/11/27 11:23:16;;;;;;;3.00;0.60;;;8.30;81.90;;;;;;5012928;28;20050;-68
2021/11/27 11:25:58;;;;;;;4.40;0.70;;;8.50;81.70;;;;;;4992601;28;20022;-69
2021/11/27 11:28:25;;;;;;;4.22;0.77;;;8.70;80.50;;;;;;4996059;28;20082;-69
2021/11/27 11:30:56;;;;;;;4.03;0.68;;;8.70;80.20;;;;;;5010239;28;20080;-69
2021/11/27 11:33:22;;;;;;;3.53;0.85;;;8.70;79.90;;;;;;5017026;28;20033;-68
2021/11/27 11:35:48;;;;;;;3.80;0.75;;;8.70;80.30;;;;;;5009974;28;20022;-69
2021/11/27 11:38:19;;;;;;;3.33;0.95;;;9.00;81.00;;;;;;4993468;28;20105;-69
2021/11/27 11:40:45;;;;;;;4.57;0.80;;;8.90;79.40;;;;;;5014006;28;20399;-69
2021/11/27 11:43:12;;;;;;;4.82;0.85;;;8.60;78.30;;;;;;5009707;28;20022;-68
2021/11/27 11:45:37;;;;;;;4.80;0.82;;;8.40;77.90;;;;;;4987884;28;20058;-68
2021/11/27 11:48:05;;;;;;;2.88;0.77;;;8.30;77.90;;;;;;5006788;28;20026;-69
2021/11/27 11:50:36;;;;;;;5.28;0.93;;;8.10;78.20;;;;;;4991661;28;20034;-68
2021/11/27 11:53:32;;;;;;;5.35;0.90;;;8.00;79.00;;;;;;5007201;28;20113;-68
2021/11/27 11:56:01;;;;;;;5.00;1.15;;;7.90;79.30;;;;;;5008765;28;20105;-68
2021/11/27 11:58:37;;;;;;;3.78;0.57;;;7.70;80.00;;;;;;5014259;28;20080;-67
2021/11/27 12:01:25;;;;;;;4.07;0.77;;;7.70;80.60;;;;;;5007140;28;20033;-68
2021/11/27 12:03:52;;;;;;;6.05;0.80;;;7.60;80.80;;;;;;4994177;28;20037;-68
2021/11/27 12:06:20;;;;;;;4.18;0.70;;;7.60;81.00;;;;;;5008720;28;20108;-63
2021/11/27 12:08:47;;;;;;;3.28;0.60;;;7.50;81.20;;;;;;5010057;28;20038;-64
2021/11/27 12:11:44;;;;;;;3.13;0.90;;;7.40;81.70;;;;;;5007772;28;20034;-67
2021/11/27 12:14:22;;;;;;;3.28;0.85;;;7.30;81.50;;;;;;5007629;28;20026;-64
2021/11/27 12:17:14;;;;;;;4.93;0.90;;;7.20;81.70;;;;;;5007215;28;20068;-64
2021/11/27 12:20:16;;;;;;;5.60;1.08;;;7.20;82.60;;;;;;5008950;28;20034;-64
2021/11/27 12:22:42;;;;;;;6.35;0.85;;;7.10;82.80;;;;;;4928138;29;20040;-63
2021/11/27 12:25:26;;;;;;;3.80;0.98;;;7.10;82.80;;;;;;4927904;29;20068;-63
2021/11/27 12:28:04;;;;;;;5.28;1.05;;;7.10;82.70;;;;;;4930344;29;20039;-64
2021/11/27 12:30:56;;;;;;;2.13;0.65;;;7.10;82.80;;;;;;4914022;29;20079;-64
2021/11/27 12:33:39;;;;;;;4.18;0.80;;;7.10;83.00;;;;;;4928708;29;20119;-63
2021/11/27 12:36:05;;;;;;;;;;;7.00;83.60;;;;;;4927653;29;20035;-67
2021/11/27 12:38:32;;;;;;;3.67;0.70;;;7.00;83.60;;;;;;4928906;29;19973;-63
2021/11/27 12:40:59;;;;;;;2.88;0.57;;;7.10;84.00;;;;;;4929860;29;20114;-63
2021/11/27 12:43:25;;;;;;;3.55;0.68;;;7.20;84.40;;;;;;4925319;29;20042;-63
2021/11/27 12:45:53;;;;;;;4.32;0.88;;;7.20;84.10;;;;;;4927687;29;20488;-64
2021/11/27 12:48:31;;;;;;;3.85;0.60;;;7.20;83.70;;;;;;4914358;29;20031;-64
2021/11/27 12:51:18;;;;;;;3.38;0.88;;;7.20;83.70;;;;;;4931454;29;20063;-63
2021/11/27 12:53:59;;;;;;;3.60;0.93;;;7.20;83.60;;;;;;4929466;29;20028;-65
2021/11/27 12:56:30;;;;;;;4.85;0.80;;;7.20;84.00;;;;;;4929613;29;20034;-65
2021/11/27 12:58:57;;;;;;;2.72;0.75;;;7.30;83.90;;;;;;4990429;28;20121;-66
2021/11/27 13:01:28;;;;;;;3.80;0.68;;;7.40;84.00;;;;;;5011800;28;20108;-65
2021/11/27 13:03:57;;;;;;;4.75;0.75;;;7.40;83.70;;;;;;5007311;28;20036;-64